Accueil
METAR-TAF:

METAR-TAF

Aéroports :

Lugano, Suisse

Aéroport de Lugano

latitude: 46-00N, longitude: 008-58E, altitude: 273 m

Observation

Le bulletin a été fait il y a 18 minutes, à 19:20 UTC
Vent 6 kt de nord/nord-est
Température 24°C
Humidité 31%
Pression 1015 hPa
Visibilité 10 km ou plus
Quelques nuages à une hauteur de 11000 ft
Nuages épars à une hauteur de 25000 ft

METAR: LSZA 241920Z 03006KT 9999 FEW110 SCT250 24/06 Q1015 NOSIG

Heure: 21:38 (19:38 UTC)

Prévision

Le bulletin a été fait il y a 5 heures et 13 minutes, à 14:25 UTC
Prévision valable du 24 à 15 UTC au 24 à 24 UTC
Vent 10 kt de nord
Visibilité 10 km ou plus
pas de nuages en-dessous de 1500 mètres et pas de cumulonimbus.
Temporairement
du 24 à 15 UTC au 24 à 18 UTC
Visibilité 10 km ou plus
Quelques nuages à une hauteur de 8000 ft

TAF: LSZA 241425Z 2415/2424 36010KT CAVOK TEMPO 2415/2418 9999 FEW080

Observations et prévisions météorologiques de plus de 4000 aéroports (messages METAR et TAF).

Les stations disponibles sont représentées par des disques jaunes et rouges sur la carte.

Passer la souris dessus pour voir le nom de la station.

Cliquer dessus pour voir les observations et prévisions météorologiques.

Pour changer de carte: cliquez sur les boutons verts avec une croix noire pour zoomer, sur le bouton vert avec un tiret pour effectuer un zoom arrière, ou sur les flèches vertes pour les cartes adjacentes.


METAR-TAF: